This is the latest recevied weather packets stored in our database for station/object AD7ZD. If no packets are shown the sender has not sent any weather packets the latest 10 day(s).
| Time | Temp. | Humidity | Pressure | Rain* | Wind** | Luminosity | Snow |
|---|---|---|---|---|---|---|---|
| 1778148902 | 10° C | 68% | 1017.2 hPa | 0 mm | - | 0 W/m² | - |
| 1778148599 | 10° C | 69% | 1017.4 hPa | 0 mm | - | 0 W/m² | - |
| 1778148296 | 9.44° C | 70% | 1017.4 hPa | 0 mm | - | 0 W/m² | - |
| 1778147994 | 9.44° C | 70% | 1017.5 hPa | 0 mm | - | 0 W/m² | - |
| 1778147692 | 10° C | 69% | 1017.2 hPa | 0 mm | - | 0 W/m² | - |
| 1778146781 | 10.56° C | 67% | 1017.5 hPa | 0 mm | - | 0 W/m² | - |
| 1778146479 | 10.56° C | 66% | 1017.2 hPa | 0 mm | - | 0 W/m² | - |
| 1778146177 | 10.56° C | 64% | 1017.2 hPa | 0 mm | - | 0 W/m² | - |
| 1778145873 | 10.56° C | 63% | 1017.4 hPa | 0 mm | - | 0 W/m² | - |
| 1778145570 | 10° C | 65% | 1017.5 hPa | 0 mm | - | 0 W/m² | - |
| 1778145267 | 10° C | 66% | 1017.4 hPa | 0 mm | - | 0 W/m² | - |
| 1778144962 | 10.56° C | 65% | 1017.4 hPa | 0 mm | - | 0 W/m² | - |
| 1778144659 | 10.56° C | 64% | 1017.5 hPa | 0 mm | - | 0 W/m² | - |
| 1778144355 | 11.11° C | 62% | 1017.2 hPa | 0 mm | - | 0 W/m² | - |
| 1778144052 | 12.22° C | 56% | 1017.7 hPa | 0 mm | - | 0 W/m² | - |
| 1778143750 | 16.67° C | 33% | 1017.5 hPa | 0 mm | - | 0 W/m² | - |
| 1778143446 | 17.22° C | 32% | 1017.4 hPa | 0 mm | - | 0 W/m² | - |
| 1778143144 | 17.78° C | 31% | 1017.6 hPa | 0 mm | - | 0 W/m² | - |
| 1778142840 | 17.78° C | 31% | 1017.5 hPa | 0 mm | - | 0 W/m² | - |
| 1778142536 | 17.78° C | 32% | 1017.4 hPa | 0 mm | - | 0 W/m² | - |
| 1778142231 | 16.67° C | 36% | 1017.7 hPa | 0 mm | - | 0 W/m² | - |
| 1778141929 | 17.22° C | 33% | 1017.5 hPa | 0 mm | - | 0 W/m² | - |
| 1778141625 | 16.67° C | 34% | 1017.5 hPa | 0 mm | - | 0 W/m² | - |
| 1778141322 | 16.67° C | 35% | 1017.2 hPa | 0 mm | - | 0 W/m² | - |
| 1778141018 | 16.67° C | 35% | 1017.5 hPa | 0 mm | - | 0 W/m² | - |
* Rain latest hour (hover to see other rain measurements)
** Current wind speed in m/s (hover to see current wind gust speed)